createdAt,value
2022-08-23T00:01:32.363Z,22.25
2022-08-23T00:04:22.527Z,22.34
2022-08-23T00:07:18.460Z,22.27
2022-08-23T00:10:07.595Z,22.22
2022-08-23T00:12:56.971Z,22.19
2022-08-23T00:15:44.919Z,22.16
2022-08-23T00:18:32.978Z,22.12
2022-08-23T00:21:21.043Z,22.01
2022-08-23T00:24:11.301Z,22.04
2022-08-23T00:27:04.379Z,22.08
2022-08-23T00:29:56.283Z,21.97
2022-08-23T00:32:45.308Z,21.94
2022-08-23T00:35:33.403Z,21.91
2022-08-23T00:38:33.873Z,21.84
2022-08-23T00:41:22.759Z,21.89
2022-08-23T00:44:36.894Z,21.58
2022-08-23T00:47:43.106Z,21.89
2022-08-23T00:50:37.794Z,21.86
2022-08-23T00:53:28.991Z,21.86
2022-08-23T00:56:21.610Z,21.78
2022-08-23T00:59:10.208Z,21.70
2022-08-23T01:01:58.471Z,21.69
2022-08-23T01:04:57.154Z,21.60
2022-08-23T01:07:48.985Z,21.61
2022-08-23T01:10:41.928Z,21.64
2022-08-23T01:13:36.996Z,21.57
2022-08-23T01:16:33.116Z,21.47
2022-08-23T01:19:28.016Z,21.42
2022-08-23T01:22:29.109Z,21.37
2022-08-23T01:25:22.218Z,21.31
2022-08-23T01:28:10.704Z,21.25
2022-08-23T01:30:58.805Z,21.16
2022-08-23T01:33:51.327Z,21.01
2022-08-23T01:36:43.358Z,21.03
2022-08-23T01:39:31.314Z,21.02
2022-08-23T01:42:20.792Z,21.07
2022-08-23T01:45:11.400Z,21.02
2022-08-23T01:47:59.664Z,20.89
2022-08-23T01:50:49.125Z,20.84
2022-08-23T01:53:37.559Z,20.76
2022-08-23T01:56:38.259Z,20.63
2022-08-23T01:59:29.797Z,20.62
2022-08-23T02:02:17.826Z,20.69
2022-08-23T02:05:06.334Z,20.66
2022-08-23T02:07:54.919Z,20.01
2022-08-23T02:10:43.434Z,20.58
2022-08-23T02:13:31.959Z,20.50
2022-08-23T02:16:26.000Z,20.44
2022-08-23T02:19:18.105Z,20.40
2022-08-23T02:22:08.218Z,20.33
2022-08-23T02:24:56.479Z,20.28
2022-08-23T02:27:44.513Z,20.21
2022-08-23T02:30:34.215Z,20.07
2022-08-23T02:33:26.491Z,20.12
2022-08-23T02:36:15.181Z,20.13
2022-08-23T02:39:03.210Z,20.09
2022-08-23T02:41:51.863Z,20.02
2022-08-23T02:44:40.434Z,20.01
2022-08-23T02:47:28.459Z,20.01
2022-08-23T02:50:39.269Z,19.93
2022-08-23T02:53:27.573Z,19.85
2022-08-23T02:56:21.429Z,19.74
2022-08-23T02:59:10.360Z,19.60
2022-08-23T03:01:58.480Z,19.40
2022-08-23T03:04:51.666Z,19.23
2022-08-23T03:07:42.616Z,19.04
2022-08-23T03:10:31.421Z,18.87
2022-08-23T03:13:22.247Z,18.73
2022-08-23T03:16:11.664Z,18.63
2022-08-23T03:19:05.308Z,18.47
2022-08-23T03:21:53.571Z,18.31
2022-08-23T03:24:44.668Z,18.18
2022-08-23T03:27:32.832Z,18.07
2022-08-23T03:30:26.784Z,18.00
2022-08-23T03:33:20.098Z,17.80
2022-08-23T03:36:10.577Z,17.92
2022-08-23T03:38:58.897Z,17.87
2022-08-23T03:41:48.714Z,17.75
2022-08-23T03:44:37.016Z,17.65
2022-08-23T03:47:25.017Z,17.53
2022-08-23T03:50:13.306Z,17.51
2022-08-23T03:53:03.099Z,17.46
2022-08-23T03:55:52.607Z,17.48
2022-08-23T03:58:42.262Z,17.47
2022-08-23T04:01:30.723Z,17.41
2022-08-23T04:04:20.059Z,17.38
2022-08-23T04:07:28.208Z,17.41
2022-08-23T04:10:19.220Z,17.63
2022-08-23T04:13:11.414Z,17.83
2022-08-23T04:16:03.055Z,18.03
2022-08-23T04:18:51.137Z,18.09
2022-08-23T04:21:44.348Z,17.98
2022-08-23T04:24:32.814Z,18.12
2022-08-23T04:27:22.107Z,18.13
2022-08-23T04:30:11.007Z,18.09
2022-08-23T04:33:03.710Z,18.08
2022-08-23T04:35:59.255Z,18.07
2022-08-23T04:38:47.344Z,17.97
2022-08-23T04:41:53.340Z,17.70
2022-08-23T04:44:41.501Z,17.80
2022-08-23T04:47:29.756Z,17.74
2022-08-23T04:50:22.719Z,17.73
2022-08-23T04:53:30.456Z,17.66
2022-08-23T04:56:51.686Z,17.65
2022-08-23T04:59:41.523Z,17.67
2022-08-23T05:02:29.539Z,17.70
2022-08-23T05:05:18.529Z,17.68
2022-08-23T05:08:09.524Z,17.64
2022-08-23T05:11:00.886Z,17.67
2022-08-23T05:13:48.967Z,17.67
2022-08-23T05:16:37.106Z,17.68
2022-08-23T05:19:30.409Z,17.74
2022-08-23T05:22:18.843Z,17.77
2022-08-23T05:25:46.085Z,17.98
2022-08-23T05:28:36.119Z,18.10
2022-08-23T05:31:27.632Z,18.32
2022-08-23T05:34:22.358Z,18.54
2022-08-23T05:37:14.197Z,18.62
2022-08-23T05:40:03.487Z,18.65
2022-08-23T05:42:58.506Z,18.65
2022-08-23T05:45:46.939Z,18.15
2022-08-23T05:48:36.213Z,18.76
2022-08-23T05:51:29.857Z,18.79
2022-08-23T05:54:18.364Z,18.92
2022-08-23T05:57:12.081Z,18.99
2022-08-23T06:00:01.454Z,19.11
2022-08-23T06:02:50.869Z,19.20
2022-08-23T06:05:42.570Z,19.30
2022-08-23T06:08:32.381Z,19.38
2022-08-23T06:11:23.515Z,19.03
2022-08-23T06:14:13.429Z,19.52
2022-08-23T06:17:05.552Z,19.51
2022-08-23T06:19:53.613Z,19.65
2022-08-23T06:22:47.519Z,19.72
2022-08-23T06:25:37.624Z,19.80
2022-08-23T06:28:32.436Z,19.96
2022-08-23T06:31:37.440Z,20.08
2022-08-23T06:34:33.313Z,20.12
2022-08-23T06:37:41.156Z,20.32
2022-08-23T06:40:44.860Z,20.07
2022-08-23T06:43:49.547Z,20.47
2022-08-23T06:46:56.316Z,20.68
2022-08-23T06:49:52.582Z,20.80
2022-08-23T06:53:07.095Z,20.90
2022-08-23T06:56:00.396Z,21.09
2022-08-23T06:58:56.218Z,21.22
2022-08-23T07:01:55.186Z,21.51
2022-08-23T07:05:03.140Z,21.72
2022-08-23T07:07:59.754Z,21.97
2022-08-23T07:10:47.754Z,22.09
2022-08-23T07:13:35.979Z,22.31
2022-08-23T07:16:25.653Z,22.33
2022-08-23T07:19:14.810Z,22.51
2022-08-23T07:22:06.517Z,22.55
2022-08-23T07:24:54.645Z,22.70
2022-08-23T07:27:44.920Z,22.93
2022-08-23T07:30:34.604Z,23.14
2022-08-23T07:33:23.715Z,23.26
2022-08-23T07:36:28.307Z,23.44
2022-08-23T07:39:19.324Z,23.53
2022-08-23T07:42:23.666Z,23.66
2022-08-23T07:45:14.636Z,23.97
2022-08-23T07:48:06.453Z,24.22
2022-08-23T07:51:06.265Z,24.23
2022-08-23T07:53:55.590Z,24.32
2022-08-23T07:56:45.732Z,24.35
2022-08-23T07:59:50.221Z,24.60
2022-08-23T08:02:57.084Z,24.78
2022-08-23T08:05:52.573Z,24.86
2022-08-23T08:08:41.889Z,24.89
2022-08-23T08:11:35.286Z,24.94
2022-08-23T08:14:25.990Z,25.23
2022-08-23T08:17:18.204Z,25.50
2022-08-23T08:20:30.879Z,25.65
2022-08-23T08:23:39.165Z,25.99
2022-08-23T08:26:49.955Z,26.16
2022-08-23T08:29:40.703Z,26.28
2022-08-23T08:32:29.638Z,26.42
2022-08-23T08:35:17.879Z,26.18
2022-08-23T08:38:06.521Z,26.67
2022-08-23T08:41:08.936Z,26.81
2022-08-23T08:44:07.360Z,27.06
2022-08-23T08:46:58.021Z,27.13
2022-08-23T08:49:52.623Z,27.03
2022-08-23T08:52:46.044Z,27.09
2022-08-23T08:55:47.004Z,27.40
2022-08-23T08:58:43.009Z,27.43
2022-08-23T09:01:34.411Z,27.60
2022-08-23T09:04:24.746Z,27.67
2022-08-23T09:07:22.466Z,27.89
2022-08-23T09:10:48.495Z,27.55
2022-08-23T09:22:16.388Z,27.94
2022-08-23T09:25:05.758Z,28.23
2022-08-23T09:28:08.215Z,28.23
2022-08-23T09:30:58.452Z,28.10
2022-08-23T09:33:48.100Z,28.35
2022-08-23T09:37:07.423Z,28.64
2022-08-23T09:40:16.739Z,28.78
2022-08-23T09:43:11.444Z,28.59
2022-08-23T09:46:02.394Z,28.79
2022-08-23T09:48:58.126Z,29.01
2022-08-23T09:51:54.225Z,29.02
2022-08-23T09:54:47.435Z,28.92
2022-08-23T09:57:38.012Z,28.84
2022-08-23T10:00:28.856Z,29.08
2022-08-23T10:03:23.357Z,29.08
2022-08-23T10:06:31.252Z,29.30
2022-08-23T10:09:28.687Z,29.35
2022-08-23T10:12:16.994Z,29.50
2022-08-23T10:15:09.470Z,29.39
2022-08-23T10:18:03.881Z,29.55
2022-08-23T10:21:00.565Z,29.97
2022-08-23T10:23:57.895Z,30.19
2022-08-23T10:27:03.570Z,30.08
2022-08-23T10:29:56.617Z,30.15
2022-08-23T10:33:07.798Z,30.34
2022-08-23T10:36:13.819Z,30.44
2022-08-23T10:39:05.037Z,30.50
2022-08-23T10:42:00.124Z,30.55
2022-08-23T10:44:54.095Z,30.67
2022-08-23T10:47:59.000Z,30.88
2022-08-23T10:50:55.874Z,31.04
2022-08-23T10:53:49.589Z,31.11
2022-08-23T10:56:44.794Z,30.71
2022-08-23T10:59:39.430Z,31.02
2022-08-23T11:02:37.595Z,30.91
2022-08-23T11:05:43.227Z,31.22
2022-08-23T11:08:47.936Z,31.32
2022-08-23T11:11:45.764Z,31.39
2022-08-23T11:14:39.614Z,31.46
2022-08-23T11:17:29.724Z,31.15
2022-08-23T11:20:50.907Z,31.22
2022-08-23T11:24:16.284Z,31.08
2022-08-23T11:27:07.675Z,31.19
2022-08-23T11:30:46.353Z,31.40
2022-08-23T11:33:44.331Z,31.78
2022-08-23T11:36:34.483Z,31.82
2022-08-23T11:39:25.449Z,31.91
2022-08-23T11:42:20.213Z,31.94
2022-08-23T11:45:23.353Z,32.17
2022-08-23T11:48:19.083Z,32.28
2022-08-23T11:51:19.339Z,32.46
2022-08-23T11:54:32.365Z,32.69
2022-08-23T11:57:35.571Z,32.73
2022-08-23T12:00:29.451Z,32.77
2022-08-23T12:03:24.808Z,32.67
2022-08-23T12:06:42.893Z,32.60
2022-08-23T12:10:05.033Z,33.19
2022-08-23T12:13:29.582Z,33.26
2022-08-23T12:16:49.647Z,33.13
2022-08-23T12:19:41.538Z,33.05
2022-08-23T12:22:35.261Z,33.32
2022-08-23T12:25:25.007Z,33.15
2022-08-23T12:28:33.590Z,33.16
2022-08-23T12:31:32.291Z,33.33
2022-08-23T12:34:25.964Z,33.44
2022-08-23T12:37:22.257Z,33.14
2022-08-23T12:40:17.153Z,33.19
2022-08-23T12:43:14.893Z,33.64
2022-08-23T12:46:06.868Z,33.84
2022-08-23T12:48:54.877Z,33.87
2022-08-23T12:51:50.537Z,33.74
2022-08-23T12:54:41.345Z,33.84
2022-08-23T12:57:34.777Z,33.65
2022-08-23T13:00:26.966Z,33.60
2022-08-23T13:03:18.659Z,33.25
2022-08-23T13:06:10.674Z,33.55
2022-08-23T13:09:03.512Z,33.66
2022-08-23T13:11:52.495Z,33.77
2022-08-23T13:14:45.130Z,34.02
2022-08-23T13:17:39.715Z,33.77
2022-08-23T13:20:28.106Z,33.82
2022-08-23T13:23:29.172Z,33.93
2022-08-23T13:26:43.301Z,33.98
2022-08-23T13:29:32.477Z,34.30
2022-08-23T13:32:30.873Z,33.68
2022-08-23T13:35:34.678Z,33.42
2022-08-23T13:38:26.184Z,33.70
2022-08-23T13:41:31.327Z,33.93
2022-08-23T13:44:21.028Z,33.92
2022-08-23T13:47:20.927Z,33.82
2022-08-23T13:50:17.071Z,33.73
2022-08-23T13:53:15.818Z,34.26
2022-08-23T13:56:04.340Z,34.51
2022-08-23T13:58:57.572Z,34.53
2022-08-23T14:01:46.241Z,34.40
2022-08-23T14:04:34.955Z,34.18
2022-08-23T14:07:22.959Z,34.36
2022-08-23T14:10:12.379Z,34.33
2022-08-23T14:13:02.114Z,34.22
2022-08-23T14:15:58.770Z,34.10
2022-08-23T14:22:07.276Z,34.34
2022-08-23T14:24:55.317Z,34.02
2022-08-23T14:27:47.458Z,33.95
2022-08-23T14:30:37.010Z,34.09
2022-08-23T14:33:25.275Z,33.88
2022-08-23T14:36:13.634Z,34.07
2022-08-23T14:39:01.619Z,34.12
2022-08-23T14:41:52.221Z,34.16
2022-08-23T14:44:41.722Z,34.21
2022-08-23T14:47:29.829Z,34.07
2022-08-23T14:50:17.852Z,34.05
2022-08-23T14:53:07.055Z,33.89
2022-08-23T14:56:18.848Z,33.64
2022-08-23T14:59:03.193Z,33.57
2022-08-23T15:01:54.472Z,33.64
2022-08-23T15:04:42.616Z,33.60
2022-08-23T15:07:30.596Z,33.69
2022-08-23T15:13:33.252Z,33.10
2022-08-23T15:16:23.727Z,32.94
2022-08-23T15:19:13.837Z,33.16
2022-08-23T15:22:06.492Z,33.25
2022-08-23T15:25:07.502Z,33.38
2022-08-23T15:27:55.639Z,33.41
2022-08-23T15:30:44.671Z,33.32
2022-08-23T15:33:33.606Z,33.29
2022-08-23T15:36:23.723Z,33.36
2022-08-23T15:39:12.379Z,33.35
2022-08-23T15:42:00.324Z,33.27
2022-08-23T15:44:48.527Z,33.00
2022-08-23T15:47:46.420Z,32.45
2022-08-23T15:50:35.643Z,32.13
2022-08-23T15:53:25.294Z,31.72
2022-08-23T15:56:19.408Z,31.43
2022-08-23T15:59:09.094Z,31.30
2022-08-23T16:01:57.295Z,31.37
2022-08-23T16:04:45.326Z,31.33
2022-08-23T16:07:34.068Z,31.17
2022-08-23T16:10:23.780Z,31.37
2022-08-23T16:13:11.794Z,31.64
2022-08-23T16:15:59.951Z,31.83
2022-08-23T16:18:48.791Z,31.82
2022-08-23T16:21:36.925Z,31.79
2022-08-23T16:24:27.537Z,31.94
2022-08-23T16:27:16.863Z,31.83
2022-08-23T16:30:05.353Z,31.76
2022-08-23T16:32:53.298Z,31.85
2022-08-23T16:35:41.371Z,31.94
2022-08-23T16:38:29.429Z,31.92
2022-08-23T16:41:17.665Z,31.85
2022-08-23T16:44:07.692Z,31.79
2022-08-23T16:46:56.399Z,31.74
2022-08-23T16:49:44.341Z,31.75
2022-08-23T16:52:34.643Z,31.73
2022-08-23T16:55:23.172Z,31.80
2022-08-23T16:58:11.942Z,31.72
2022-08-23T17:01:01.449Z,31.80
2022-08-23T17:03:50.509Z,31.97
2022-08-23T17:06:38.469Z,31.68
2022-08-23T17:09:28.964Z,31.26
2022-08-23T17:12:19.212Z,30.72
2022-08-23T17:15:10.264Z,30.60
2022-08-23T17:18:00.742Z,30.32
2022-08-23T17:20:49.398Z,30.08
2022-08-23T17:23:40.735Z,29.81
2022-08-23T17:26:29.354Z,29.50
2022-08-23T17:29:17.402Z,29.22
2022-08-23T17:32:09.078Z,28.93
2022-08-23T17:34:58.425Z,28.65
2022-08-23T17:37:46.956Z,28.29
2022-08-23T17:40:39.055Z,28.09
2022-08-23T17:43:27.187Z,27.89
2022-08-23T17:46:15.263Z,27.66
2022-08-23T17:49:03.408Z,27.40
2022-08-23T17:51:52.730Z,27.16
2022-08-23T17:54:41.397Z,26.91
2022-08-23T17:57:31.370Z,26.68
2022-08-23T18:00:20.568Z,26.46
2022-08-23T18:03:09.146Z,26.24
2022-08-23T18:05:57.191Z,26.00
2022-08-23T18:08:47.460Z,25.77
2022-08-23T18:11:35.868Z,25.56
2022-08-23T18:14:24.294Z,25.41
2022-08-23T18:17:12.302Z,25.21
2022-08-23T18:20:00.530Z,25.00
2022-08-23T18:22:48.574Z,24.75
2022-08-23T18:25:38.110Z,24.62
2022-08-23T18:28:25.059Z,24.46
2022-08-23T18:31:16.280Z,24.27
2022-08-23T18:34:04.650Z,24.10
2022-08-23T18:36:53.687Z,23.93
2022-08-23T18:39:41.611Z,23.73
2022-08-23T18:42:31.167Z,23.60
2022-08-23T18:45:19.933Z,23.52
2022-08-23T18:48:11.015Z,23.42
2022-08-23T18:50:59.324Z,23.33
2022-08-23T18:53:47.368Z,23.20
2022-08-23T18:56:35.958Z,22.90
2022-08-23T18:59:25.431Z,22.97
2022-08-23T19:02:13.597Z,22.82
2022-08-23T19:05:02.999Z,22.68
2022-08-23T19:07:51.091Z,22.59
2022-08-23T19:10:39.315Z,22.52
2022-08-23T19:13:27.382Z,22.38
2022-08-23T19:16:16.974Z,22.28
2022-08-23T19:19:05.777Z,22.26
2022-08-23T19:21:53.740Z,22.13
2022-08-23T19:24:42.112Z,22.10
2022-08-23T19:27:30.038Z,22.04
2022-08-23T19:30:18.780Z,21.98
2022-08-23T19:33:08.432Z,21.94
2022-08-23T19:35:58.047Z,21.85
2022-08-23T19:38:46.160Z,21.79
2022-08-23T19:41:34.389Z,21.78
2022-08-23T19:44:22.451Z,21.98
2022-08-23T19:47:13.430Z,22.31
2022-08-23T19:50:10.844Z,22.63
2022-08-23T19:52:59.059Z,22.74
2022-08-23T19:55:47.827Z,22.88
2022-08-23T19:58:37.401Z,22.93
2022-08-23T20:01:25.354Z,22.86
2022-08-23T20:04:13.416Z,22.66
2022-08-23T20:07:04.038Z,22.68
2022-08-23T20:09:52.026Z,22.56
2022-08-23T20:12:41.664Z,22.45
2022-08-23T20:15:30.105Z,22.34
2022-08-23T20:18:18.071Z,22.38
2022-08-23T20:21:06.174Z,22.59
2022-08-23T20:24:01.774Z,22.93
2022-08-23T20:26:50.933Z,23.07
2022-08-23T20:29:39.019Z,23.15
2022-08-23T20:32:27.315Z,23.19
2022-08-23T20:35:15.271Z,23.25
2022-08-23T20:38:04.356Z,23.20
2022-08-23T20:40:54.161Z,23.13
2022-08-23T20:43:42.829Z,23.08
2022-08-23T20:46:31.885Z,23.11
2022-08-23T20:49:21.000Z,23.16
2022-08-23T20:52:09.242Z,23.25
2022-08-23T20:54:57.232Z,23.27
2022-08-23T20:57:46.806Z,23.19
2022-08-23T21:00:34.898Z,23.11
2022-08-23T21:03:22.947Z,23.07
2022-08-23T21:06:20.137Z,23.02
2022-08-23T21:09:10.252Z,23.04
2022-08-23T21:11:58.394Z,22.97
2022-08-23T21:14:47.703Z,22.91
2022-08-23T21:17:35.742Z,22.86
2022-08-23T21:20:23.846Z,22.76
2022-08-23T21:23:11.837Z,22.73
2022-08-23T21:26:00.264Z,22.76
2022-08-23T21:28:48.252Z,22.81
2022-08-23T21:31:38.504Z,22.84
2022-08-23T21:34:26.632Z,22.91
2022-08-23T21:37:14.684Z,22.85
2022-08-23T21:40:02.756Z,22.86
2022-08-23T21:42:50.734Z,22.88
2022-08-23T21:45:41.658Z,22.87
2022-08-23T21:48:32.535Z,22.97
2022-08-23T21:51:20.656Z,22.99
2022-08-23T21:54:09.892Z,23.03
2022-08-23T21:56:58.007Z,23.03
2022-08-23T21:59:46.201Z,23.01
2022-08-23T22:02:34.193Z,22.86
2022-08-23T22:05:23.580Z,22.88
2022-08-23T22:08:14.114Z,22.85
2022-08-23T22:11:07.073Z,22.94
2022-08-23T22:13:55.675Z,22.92
2022-08-23T22:16:44.537Z,22.90
2022-08-23T22:19:32.536Z,22.98
2022-08-23T22:22:22.062Z,22.96
2022-08-23T22:25:10.464Z,22.77
2022-08-23T22:27:58.560Z,22.73
2022-08-23T22:30:46.635Z,22.87
2022-08-23T22:33:35.345Z,22.97
2022-08-23T22:36:24.774Z,23.06
2022-08-23T22:39:14.231Z,23.07
2022-08-23T22:42:02.225Z,23.05
2022-08-23T22:44:50.386Z,22.91
2022-08-23T22:47:38.368Z,23.12
2022-08-23T22:50:26.414Z,23.12
2022-08-23T22:53:15.201Z,23.10
2022-08-23T22:56:05.689Z,23.14
2022-08-23T22:58:54.098Z,22.99
2022-08-23T23:01:44.826Z,22.85
2022-08-23T23:04:33.564Z,22.69
2022-08-23T23:07:45.495Z,22.69
2022-08-23T23:10:33.535Z,22.91
2022-08-23T23:13:24.468Z,22.99
2022-08-23T23:16:15.172Z,22.89
2022-08-23T23:19:20.659Z,22.87
2022-08-23T23:22:10.250Z,22.90
2022-08-23T23:24:58.251Z,22.69
2022-08-23T23:27:46.528Z,22.62
2022-08-23T23:30:36.159Z,22.54
2022-08-23T23:33:25.936Z,22.57
2022-08-23T23:36:17.520Z,22.54
2022-08-23T23:39:06.494Z,22.47
2022-08-23T23:41:54.492Z,22.59
2022-08-23T23:44:42.463Z,22.62
2022-08-23T23:47:31.811Z,22.65
2022-08-23T23:50:20.428Z,22.78
2022-08-23T23:53:08.433Z,22.68
2022-08-23T23:56:01.381Z,22.43
2022-08-23T23:58:52.039Z,22.63
